createdAt,value
2017-01-14T00:00:19.651Z,2.25
2017-01-14T00:01:20.431Z,2.2
2017-01-14T00:02:21.196Z,2.22
2017-01-14T00:03:21.927Z,2.18
2017-01-14T00:04:22.673Z,2.22
2017-01-14T00:05:23.461Z,2.22
2017-01-14T00:06:24.244Z,2.14
2017-01-14T00:07:25.012Z,2.08
2017-01-14T00:08:25.763Z,2.13
2017-01-14T00:09:26.529Z,2.11
2017-01-14T00:10:27.299Z,2.14
2017-01-14T00:11:28.092Z,2.11
2017-01-14T00:12:28.827Z,2.13
2017-01-14T00:13:29.606Z,2.11
2017-01-14T00:14:30.364Z,2.08
2017-01-14T00:15:31.106Z,2.15
2017-01-14T00:16:31.842Z,2.14
2017-01-14T00:17:32.598Z,2.17
2017-01-14T00:18:33.350Z,2.11
2017-01-14T00:19:34.115Z,2.25
2017-01-14T00:20:34.859Z,2.22
2017-01-14T00:21:35.650Z,2.17
2017-01-14T00:22:36.394Z,2.17
2017-01-14T00:23:37.144Z,2.13
2017-01-14T00:24:37.881Z,2.15
2017-01-14T00:25:38.645Z,2.22
2017-01-14T00:26:39.392Z,2.22
2017-01-14T00:27:40.128Z,2.25
2017-01-14T00:28:40.880Z,2.25
2017-01-14T00:29:41.709Z,2.2
2017-01-14T00:30:42.498Z,2.28
2017-01-14T00:31:43.255Z,2.25
2017-01-14T00:32:43.999Z,2.29
2017-01-14T00:33:44.788Z,2.35
2017-01-14T00:34:45.542Z,2.31
2017-01-14T00:35:46.281Z,2.35
2017-01-14T00:36:47.023Z,2.26
2017-01-14T00:37:47.771Z,2.18
2017-01-14T00:38:48.533Z,2.31
2017-01-14T00:39:49.301Z,2.32
2017-01-14T00:40:50.033Z,2.33
2017-01-14T00:41:50.777Z,2.28
2017-01-14T00:42:51.530Z,2.36
2017-01-14T00:43:52.273Z,2.36
2017-01-14T00:44:53.053Z,2.42
2017-01-14T00:45:53.812Z,2.35
2017-01-14T00:46:54.547Z,2.39
2017-01-14T00:47:55.308Z,2.35
2017-01-14T00:48:56.080Z,2.31
2017-01-14T00:49:56.819Z,2.32
2017-01-14T00:50:57.574Z,2.35
2017-01-14T00:51:58.371Z,2.38
2017-01-14T00:52:59.116Z,2.28
2017-01-14T00:53:59.930Z,2.36
2017-01-14T00:55:00.685Z,2.28
2017-01-14T00:56:01.433Z,2.26
2017-01-14T00:57:02.223Z,2.26
2017-01-14T00:58:02.978Z,2.39
2017-01-14T00:59:03.729Z,2.26
2017-01-14T01:00:04.496Z,2.25
2017-01-14T01:01:05.252Z,2.32
2017-01-14T01:02:06.006Z,2.31
2017-01-14T01:03:06.781Z,2.28
2017-01-14T01:04:07.521Z,2.22
2017-01-14T01:05:08.282Z,2.24
2017-01-14T01:06:09.079Z,2.26
2017-01-14T01:07:09.876Z,2.29
2017-01-14T01:08:10.602Z,2.26
2017-01-14T01:09:11.372Z,2.31
2017-01-14T01:10:12.107Z,2.32
2017-01-14T01:11:12.861Z,2.26
2017-01-14T01:12:13.627Z,2.28
2017-01-14T01:13:14.379Z,2.26
2017-01-14T01:14:15.160Z,2.29
2017-01-14T01:15:15.919Z,2.32
2017-01-14T01:16:16.656Z,2.25
2017-01-14T01:17:17.411Z,2.18
2017-01-14T01:18:18.178Z,2.18
2017-01-14T01:19:18.927Z,2.26
2017-01-14T01:20:19.688Z,2.31
2017-01-14T01:21:20.422Z,2.32
2017-01-14T01:22:21.178Z,2.38
2017-01-14T01:23:21.935Z,2.35
2017-01-14T01:24:22.679Z,2.33
2017-01-14T01:25:23.442Z,2.35
2017-01-14T01:26:24.214Z,2.36
2017-01-14T01:27:25.011Z,2.26
2017-01-14T01:28:25.759Z,2.29
2017-01-14T01:29:26.507Z,2.32
2017-01-14T01:30:27.255Z,2.31
2017-01-14T01:31:28.010Z,2.24
2017-01-14T01:32:28.755Z,2.26
2017-01-14T01:33:29.525Z,2.2
2017-01-14T01:34:30.274Z,2.24
2017-01-14T01:35:31.027Z,2.26
2017-01-14T01:36:31.780Z,2.26
2017-01-14T01:37:32.527Z,2.25
2017-01-14T01:38:33.284Z,2.25
2017-01-14T01:39:34.016Z,2.26
2017-01-14T01:40:34.763Z,2.26
2017-01-14T01:41:35.531Z,2.36
2017-01-14T01:42:36.275Z,2.17
2017-01-14T01:43:37.050Z,2.24
2017-01-14T01:44:37.803Z,2.18
2017-01-14T01:45:38.571Z,2.11
2017-01-14T01:46:39.335Z,2.17
2017-01-14T01:47:40.076Z,2.17
2017-01-14T01:48:40.839Z,2.17
2017-01-14T01:49:41.602Z,2.22
2017-01-14T01:50:42.342Z,2.26
2017-01-14T01:51:43.083Z,2.32
2017-01-14T01:52:43.817Z,2.31
2017-01-14T01:53:44.562Z,2.33
2017-01-14T01:54:45.323Z,2.24
2017-01-14T01:55:46.060Z,2.2
2017-01-14T01:56:46.831Z,2.26
2017-01-14T01:57:47.586Z,2.24
2017-01-14T01:58:48.346Z,2.31
2017-01-14T01:59:49.107Z,2.26
2017-01-14T02:00:49.858Z,2.22
2017-01-14T02:01:50.606Z,2.2
2017-01-14T02:02:51.369Z,2.22
2017-01-14T02:03:52.105Z,2.18
2017-01-14T02:04:52.867Z,2.25
2017-01-14T02:05:53.608Z,2.17
2017-01-14T02:06:54.375Z,2.26
2017-01-14T02:07:55.119Z,2.25
2017-01-14T02:08:55.858Z,2.17
2017-01-14T02:09:56.609Z,2.11
2017-01-14T02:10:57.348Z,2.15
2017-01-14T02:11:58.143Z,2.2
2017-01-14T02:12:58.877Z,2.18
2017-01-14T02:13:59.642Z,2.22
2017-01-14T02:15:00.401Z,2.17
2017-01-14T02:16:01.148Z,2.18
2017-01-14T02:17:01.952Z,2.24
2017-01-14T02:18:02.697Z,2.24
2017-01-14T02:19:03.502Z,2.24
2017-01-14T02:20:04.249Z,2.28
2017-01-14T02:21:04.973Z,2.26
2017-01-14T02:22:05.737Z,2.28
2017-01-14T02:23:06.475Z,2.26
2017-01-14T02:24:07.235Z,2.31
2017-01-14T02:25:07.974Z,2.31
2017-01-14T02:26:08.737Z,2.35
2017-01-14T02:27:09.507Z,2.26
2017-01-14T02:28:10.250Z,2.28
2017-01-14T02:29:10.994Z,2.33
2017-01-14T02:30:11.754Z,2.29
2017-01-14T02:31:12.537Z,2.25
2017-01-14T02:32:13.293Z,2.31
2017-01-14T02:33:14.061Z,2.25
2017-01-14T02:34:14.806Z,2.26
2017-01-14T02:35:15.597Z,2.22
2017-01-14T02:36:16.350Z,2.28
2017-01-14T02:37:17.116Z,2.26
2017-01-14T02:38:17.903Z,2.26
2017-01-14T02:39:18.621Z,2.22
2017-01-14T02:40:19.390Z,2.28
2017-01-14T02:41:20.122Z,2.25
2017-01-14T02:42:20.900Z,2.24
2017-01-14T02:43:21.677Z,2.13
2017-01-14T02:44:22.434Z,2.17
2017-01-14T02:45:23.168Z,2.17
2017-01-14T02:46:23.918Z,2.2
2017-01-14T02:47:24.672Z,2.2
2017-01-14T02:48:25.470Z,2.29
2017-01-14T02:49:26.212Z,2.22
2017-01-14T02:50:27.149Z,2.24
2017-01-14T02:51:28.629Z,2.24
2017-01-14T02:52:29.501Z,2.17
2017-01-14T02:53:30.909Z,2.22
2017-01-14T02:54:31.687Z,2.15
2017-01-14T02:55:32.437Z,2.11
2017-01-14T02:56:33.172Z,2.08
2017-01-14T02:57:33.975Z,2.14
2017-01-14T02:58:34.685Z,2.22
2017-01-14T02:59:35.460Z,2.28
2017-01-14T03:00:36.252Z,2.24
2017-01-14T03:01:37.020Z,2.22
2017-01-14T03:02:37.775Z,2.26
2017-01-14T03:03:38.574Z,2.24
2017-01-14T03:04:39.322Z,2.2
2017-01-14T03:05:40.061Z,2.17
2017-01-14T03:06:40.820Z,2.25
2017-01-14T03:07:41.545Z,2.18
2017-01-14T03:08:42.288Z,2.13
2017-01-14T03:09:43.087Z,2.2
2017-01-14T03:10:43.825Z,2.22
2017-01-14T03:11:44.583Z,2.17
2017-01-14T03:12:45.374Z,2.24
2017-01-14T03:13:46.114Z,2.17
2017-01-14T03:14:46.872Z,2.18
2017-01-14T03:15:47.624Z,2.22
2017-01-14T03:16:48.393Z,2.22
2017-01-14T03:17:49.146Z,2.17
2017-01-14T03:18:49.888Z,2.22
2017-01-14T03:19:50.643Z,2.24
2017-01-14T03:20:51.387Z,2.26
2017-01-14T03:21:52.149Z,2.29
2017-01-14T03:22:52.915Z,2.29
2017-01-14T03:23:53.708Z,2.2
2017-01-14T03:24:54.493Z,2.26
2017-01-14T03:25:55.244Z,2.31
2017-01-14T03:26:55.991Z,2.35
2017-01-14T03:27:56.744Z,2.32
2017-01-14T03:28:57.524Z,2.32
2017-01-14T03:29:58.283Z,2.2
2017-01-14T03:30:59.026Z,2.28
2017-01-14T03:31:59.772Z,2.28
2017-01-14T03:33:00.522Z,2.22
2017-01-14T03:34:01.278Z,2.22
2017-01-14T03:35:02.023Z,2.22
2017-01-14T03:36:02.810Z,2.22
2017-01-14T03:37:03.553Z,2.22
2017-01-14T03:38:04.313Z,2.22
2017-01-14T03:39:05.050Z,2.26
2017-01-14T03:40:05.797Z,2.24
2017-01-14T03:41:07.029Z,2.28
2017-01-14T03:42:07.795Z,2.29
2017-01-14T03:43:09.020Z,2.29
2017-01-14T03:44:09.768Z,2.28
2017-01-14T03:45:10.790Z,2.24
2017-01-14T03:46:11.522Z,2.22
2017-01-14T03:47:12.271Z,2.26
2017-01-14T03:48:13.035Z,2.25
2017-01-14T03:49:13.802Z,2.29
2017-01-14T03:50:14.551Z,2.24
2017-01-14T03:51:15.296Z,2.31
2017-01-14T03:52:16.060Z,2.33
2017-01-14T03:53:16.803Z,2.31
2017-01-14T03:54:17.551Z,2.31
2017-01-14T03:55:18.312Z,2.33
2017-01-14T03:56:19.080Z,2.24
2017-01-14T03:57:20.548Z,2.28
2017-01-14T03:58:21.303Z,2.31
2017-01-14T03:59:22.052Z,2.42
2017-01-14T04:00:22.816Z,2.38
2017-01-14T04:01:24.590Z,2.33
2017-01-14T04:02:26.465Z,2.36
2017-01-14T04:03:27.226Z,2.38
2017-01-14T04:04:27.980Z,2.39
2017-01-14T04:05:28.720Z,2.44
2017-01-14T04:06:29.496Z,2.42
2017-01-14T04:07:30.259Z,2.39
2017-01-14T04:08:31.010Z,2.38
2017-01-14T04:09:31.750Z,2.38
2017-01-14T04:10:32.511Z,2.39
2017-01-14T04:11:33.258Z,2.42
2017-01-14T04:12:34.022Z,2.36
2017-01-14T04:13:34.759Z,2.38
2017-01-14T04:14:35.509Z,2.32
2017-01-14T04:15:36.288Z,2.39
2017-01-14T04:16:37.042Z,2.33
2017-01-14T04:17:37.802Z,2.36
2017-01-14T04:18:38.554Z,2.43
2017-01-14T04:19:39.320Z,2.29
2017-01-14T04:20:40.086Z,2.43
2017-01-14T04:21:40.847Z,2.42
2017-01-14T04:22:41.599Z,2.44
2017-01-14T04:23:42.379Z,2.39
2017-01-14T04:24:43.156Z,2.43
2017-01-14T04:25:43.891Z,2.36
2017-01-14T04:26:44.655Z,2.43
2017-01-14T04:27:45.397Z,2.38
2017-01-14T04:28:46.164Z,2.39
2017-01-14T04:29:46.930Z,2.43
2017-01-14T04:30:47.679Z,2.35
2017-01-14T04:31:48.433Z,2.39
2017-01-14T04:32:49.198Z,2.39
2017-01-14T04:33:49.946Z,2.44
2017-01-14T04:34:50.689Z,2.43
2017-01-14T04:35:51.436Z,2.43
2017-01-14T04:36:52.208Z,2.36
2017-01-14T04:37:52.968Z,2.43
2017-01-14T04:38:53.759Z,2.43
2017-01-14T04:39:54.504Z,2.38
2017-01-14T04:40:55.304Z,2.32
2017-01-14T04:41:56.066Z,2.42
2017-01-14T04:42:56.808Z,2.39
2017-01-14T04:43:57.557Z,2.42
2017-01-14T04:44:58.295Z,2.42
2017-01-14T04:45:59.044Z,2.36
2017-01-14T04:46:59.778Z,2.47
2017-01-14T04:48:00.520Z,2.44
2017-01-14T04:49:01.278Z,2.49
2017-01-14T04:50:02.032Z,2.53
2017-01-14T04:51:02.789Z,2.5
2017-01-14T04:52:03.540Z,2.49
2017-01-14T04:53:04.276Z,2.43
2017-01-14T04:54:05.047Z,2.38
2017-01-14T04:55:05.812Z,2.46
2017-01-14T04:56:06.561Z,2.53
2017-01-14T04:57:07.316Z,2.47
2017-01-14T04:58:08.073Z,2.43
2017-01-14T04:59:08.848Z,2.44
2017-01-14T05:00:09.615Z,2.53
2017-01-14T05:01:10.372Z,2.49
2017-01-14T05:02:11.118Z,2.43
2017-01-14T05:03:11.895Z,2.53
2017-01-14T05:04:12.636Z,2.53
2017-01-14T05:05:13.415Z,2.53
2017-01-14T05:06:14.182Z,2.47
2017-01-14T05:07:14.935Z,2.47
2017-01-14T05:08:15.680Z,2.49
2017-01-14T05:09:16.466Z,2.57
2017-01-14T05:10:17.242Z,2.57
2017-01-14T05:11:17.991Z,2.65
2017-01-14T05:12:18.744Z,2.64
2017-01-14T05:13:19.483Z,2.61
2017-01-14T05:14:20.257Z,2.62
2017-01-14T05:15:20.996Z,2.62
2017-01-14T05:16:21.771Z,2.6
2017-01-14T05:17:22.527Z,2.57
2017-01-14T05:18:23.287Z,2.54
2017-01-14T05:19:24.024Z,2.61
2017-01-14T05:20:24.768Z,2.62
2017-01-14T05:21:25.514Z,2.64
2017-01-14T05:22:26.275Z,2.61
2017-01-14T05:23:27.023Z,2.53
2017-01-14T05:24:27.790Z,2.61
2017-01-14T05:25:28.531Z,2.49
2017-01-14T05:26:29.284Z,2.51
2017-01-14T05:27:30.041Z,2.36
2017-01-14T05:28:30.799Z,2.44
2017-01-14T05:29:31.557Z,2.43
2017-01-14T05:30:32.297Z,2.39
2017-01-14T05:31:33.033Z,2.47
2017-01-14T05:32:33.787Z,2.39
2017-01-14T05:33:34.565Z,2.44
2017-01-14T05:34:35.335Z,2.43
2017-01-14T05:35:36.094Z,2.43
2017-01-14T05:36:36.833Z,2.33
2017-01-14T05:37:37.583Z,2.35
2017-01-14T05:38:38.360Z,2.43
2017-01-14T05:39:39.111Z,2.38
2017-01-14T05:40:39.871Z,2.43
2017-01-14T05:41:40.624Z,2.44
2017-01-14T05:42:41.367Z,2.44
2017-01-14T05:43:42.119Z,2.43
2017-01-14T05:44:42.879Z,2.38
2017-01-14T05:45:43.628Z,2.39
2017-01-14T05:46:44.434Z,2.43
2017-01-14T05:47:45.197Z,2.38
2017-01-14T05:48:45.951Z,2.26
2017-01-14T05:49:46.712Z,2.26
2017-01-14T05:50:47.463Z,2.39
2017-01-14T05:51:48.219Z,2.44
2017-01-14T05:52:48.993Z,2.43
2017-01-14T05:53:49.735Z,2.36
2017-01-14T05:54:50.494Z,2.43
2017-01-14T05:55:51.270Z,2.28
2017-01-14T05:56:52.020Z,2.28
2017-01-14T05:57:52.796Z,2.26
2017-01-14T05:58:53.561Z,2.35
2017-01-14T05:59:54.322Z,2.35
2017-01-14T06:00:55.092Z,2.28
2017-01-14T06:01:55.835Z,2.31
2017-01-14T06:02:56.596Z,2.39
2017-01-14T06:03:57.379Z,2.47
2017-01-14T06:04:58.184Z,2.39
2017-01-14T06:05:58.926Z,2.46
2017-01-14T06:06:59.756Z,2.39
2017-01-14T06:08:00.478Z,2.42
2017-01-14T06:09:01.285Z,2.47
2017-01-14T06:10:02.047Z,2.46
2017-01-14T06:11:02.803Z,2.47
2017-01-14T06:12:03.569Z,2.43
2017-01-14T06:13:04.322Z,2.43
2017-01-14T06:14:05.074Z,2.39
2017-01-14T06:15:05.840Z,2.44
2017-01-14T06:16:06.595Z,2.43
2017-01-14T06:17:07.354Z,2.44
2017-01-14T06:18:08.126Z,2.44
2017-01-14T06:19:08.926Z,2.38
2017-01-14T06:20:09.712Z,2.46
2017-01-14T06:21:10.452Z,2.53
2017-01-14T06:22:11.196Z,2.49
2017-01-14T06:23:11.958Z,2.5
2017-01-14T06:24:12.751Z,2.51
2017-01-14T06:25:13.489Z,2.44
2017-01-14T06:26:14.230Z,2.47
2017-01-14T06:27:14.974Z,2.57
2017-01-14T06:28:15.727Z,2.5
2017-01-14T06:29:16.482Z,2.51
2017-01-14T06:30:17.231Z,2.61
2017-01-14T06:31:17.962Z,2.65
2017-01-14T06:32:18.715Z,2.71
2017-01-14T06:33:19.506Z,2.89
2017-01-14T06:34:20.252Z,3.01
2017-01-14T06:35:21.027Z,2.95
2017-01-14T06:36:21.776Z,2.87
2017-01-14T06:37:22.522Z,2.85
2017-01-14T06:38:23.270Z,2.79
2017-01-14T06:39:24.014Z,2.82
2017-01-14T06:40:24.770Z,2.75
2017-01-14T06:41:25.506Z,2.75
2017-01-14T06:42:26.277Z,2.75
2017-01-14T06:43:27.051Z,2.67
2017-01-14T06:44:27.787Z,2.72
2017-01-14T06:45:28.551Z,2.74
2017-01-14T06:46:29.307Z,2.69
2017-01-14T06:47:30.051Z,2.71
2017-01-14T06:48:30.804Z,2.75
2017-01-14T06:49:31.545Z,2.61
2017-01-14T06:50:32.309Z,2.65
2017-01-14T06:51:33.063Z,2.67
2017-01-14T06:52:33.807Z,2.65
2017-01-14T06:53:34.565Z,2.67
2017-01-14T06:54:35.318Z,2.65
2017-01-14T06:55:36.075Z,2.57
2017-01-14T06:56:36.829Z,2.71
2017-01-14T06:57:37.594Z,2.61
2017-01-14T06:58:38.347Z,2.65
2017-01-14T06:59:39.100Z,2.64
2017-01-14T07:00:39.856Z,2.68
2017-01-14T07:01:40.604Z,2.62
2017-01-14T07:02:41.349Z,2.69
2017-01-14T07:03:42.108Z,2.69
2017-01-14T07:04:42.850Z,2.8
2017-01-14T07:05:43.615Z,2.61
2017-01-14T07:06:44.384Z,2.71
2017-01-14T07:07:45.225Z,2.75
2017-01-14T07:08:45.998Z,2.69
2017-01-14T07:09:46.752Z,2.68
2017-01-14T07:10:47.503Z,2.6
2017-01-14T07:11:48.245Z,2.69
2017-01-14T07:12:49.031Z,2.65
2017-01-14T07:13:49.799Z,2.77
2017-01-14T07:14:50.554Z,2.74
2017-01-14T07:15:51.298Z,2.64
2017-01-14T07:16:52.064Z,2.69
2017-01-14T07:17:52.894Z,2.67
2017-01-14T07:18:53.714Z,2.64
2017-01-14T07:19:54.464Z,2.62
2017-01-14T07:20:55.239Z,2.74
2017-01-14T07:21:55.976Z,2.74
2017-01-14T07:22:56.729Z,2.65
2017-01-14T07:23:57.488Z,2.75
2017-01-14T07:24:58.690Z,2.68
2017-01-14T07:25:59.439Z,2.71
2017-01-14T07:27:00.188Z,2.74
2017-01-14T07:28:00.949Z,2.64
2017-01-14T07:29:02.073Z,2.61
2017-01-14T07:30:02.830Z,2.77
2017-01-14T07:31:03.861Z,2.75
2017-01-14T07:32:06.120Z,2.56
2017-01-14T07:33:08.573Z,2.65
2017-01-14T07:34:11.155Z,2.75
2017-01-14T07:35:11.914Z,2.56
2017-01-14T07:36:12.687Z,2.8
2017-01-14T07:37:13.432Z,2.69
2017-01-14T07:38:14.186Z,2.79
2017-01-14T07:39:14.928Z,2.67
2017-01-14T07:40:15.693Z,2.61
2017-01-14T07:41:16.453Z,2.68
2017-01-14T07:42:17.195Z,2.69
2017-01-14T07:43:17.962Z,2.68
2017-01-14T07:44:18.727Z,2.62
2017-01-14T07:45:19.478Z,2.69
2017-01-14T07:46:20.246Z,2.68
2017-01-14T07:47:21.014Z,2.64
2017-01-14T07:48:22.225Z,2.64
2017-01-14T07:49:24.589Z,2.62
2017-01-14T07:50:25.349Z,2.68
2017-01-14T07:51:26.487Z,2.68
2017-01-14T07:52:28.365Z,2.64
2017-01-14T07:53:29.109Z,2.69
2017-01-14T07:54:29.858Z,2.69
2017-01-14T07:55:30.666Z,2.61
2017-01-14T07:56:31.417Z,2.68
2017-01-14T07:57:32.157Z,2.6
2017-01-14T07:58:32.908Z,2.62
2017-01-14T07:59:33.695Z,2.61
2017-01-14T08:00:34.503Z,2.62
2017-01-14T08:01:35.487Z,2.68
2017-01-14T08:02:36.254Z,2.6
2017-01-14T08:03:36.998Z,2.64
2017-01-14T08:04:37.750Z,2.61
2017-01-14T08:05:38.479Z,2.64
2017-01-14T08:06:39.236Z,2.62
2017-01-14T08:07:40.003Z,2.67
2017-01-14T08:08:40.745Z,2.62
2017-01-14T08:09:41.486Z,2.57
2017-01-14T08:10:42.223Z,2.6
2017-01-14T08:11:42.973Z,2.64
2017-01-14T08:12:43.724Z,2.61
2017-01-14T08:13:44.472Z,2.6
2017-01-14T08:14:45.254Z,2.65
2017-01-14T08:15:46.030Z,2.61
2017-01-14T08:16:46.788Z,2.62
2017-01-14T08:17:47.533Z,2.62
2017-01-14T08:18:48.310Z,2.61
2017-01-14T08:19:49.052Z,2.67
2017-01-14T08:20:49.814Z,2.64
2017-01-14T08:21:50.574Z,2.65
2017-01-14T08:22:51.319Z,2.64
2017-01-14T08:23:52.175Z,2.68
2017-01-14T08:24:52.926Z,2.75
2017-01-14T08:25:53.706Z,2.74
2017-01-14T08:26:54.469Z,2.57
2017-01-14T08:27:55.208Z,2.72
2017-01-14T08:28:55.957Z,2.74
2017-01-14T08:29:56.710Z,2.72
2017-01-14T08:30:57.482Z,2.75
2017-01-14T08:31:58.250Z,2.67
2017-01-14T08:32:58.997Z,2.69
2017-01-14T08:33:59.756Z,2.71
2017-01-14T08:35:00.516Z,2.75
2017-01-14T08:36:01.260Z,2.8
2017-01-14T08:37:02.002Z,2.75
2017-01-14T08:38:02.775Z,2.79
2017-01-14T08:39:03.523Z,2.85
2017-01-14T08:40:04.330Z,2.8
2017-01-14T08:41:05.094Z,2.75
2017-01-14T08:42:05.852Z,2.82
2017-01-14T08:43:06.604Z,2.86
2017-01-14T08:44:07.375Z,2.89
2017-01-14T08:45:08.135Z,2.87
2017-01-14T08:46:08.916Z,2.9
2017-01-14T08:47:09.681Z,2.89
2017-01-14T08:48:10.445Z,2.89
2017-01-14T08:49:11.219Z,2.9
2017-01-14T08:50:11.966Z,3.01
2017-01-14T08:51:12.723Z,3.14
2017-01-14T08:52:13.467Z,3.19
2017-01-14T08:53:14.230Z,3.18
2017-01-14T08:54:15.206Z,3.25
2017-01-14T08:55:15.959Z,3.25
2017-01-14T08:56:16.728Z,3.34
2017-01-14T08:57:17.458Z,3.37
2017-01-14T08:58:18.217Z,3.37
2017-01-14T08:59:18.962Z,3.53
2017-01-14T09:00:19.709Z,3.56
2017-01-14T09:01:20.466Z,3.7
2017-01-14T09:02:21.234Z,3.58
2017-01-14T09:03:21.997Z,3.56
2017-01-14T09:04:22.749Z,3.53
2017-01-14T09:05:23.506Z,3.53
2017-01-14T09:06:24.274Z,3.5
2017-01-14T09:07:25.050Z,3.47
2017-01-14T09:08:25.800Z,3.42
2017-01-14T09:09:26.559Z,3.42
2017-01-14T09:10:27.342Z,3.37
2017-01-14T09:11:28.102Z,3.34
2017-01-14T09:12:28.886Z,3.4
2017-01-14T09:13:29.739Z,3.45
2017-01-14T09:14:30.496Z,3.5
2017-01-14T09:15:31.281Z,3.51
2017-01-14T09:16:32.008Z,3.51
2017-01-14T09:17:32.758Z,3.55
2017-01-14T09:18:33.501Z,3.51
2017-01-14T09:19:34.236Z,3.51
2017-01-14T09:20:36.390Z,3.45
2017-01-14T09:21:39.399Z,3.47
2017-01-14T09:22:41.892Z,3.44
2017-01-14T09:23:42.649Z,3.47
2017-01-14T09:24:43.748Z,3.45
2017-01-14T09:25:44.579Z,3.51
2017-01-14T09:26:45.359Z,3.56
2017-01-14T09:27:46.210Z,3.63
2017-01-14T09:28:46.947Z,3.73
2017-01-14T09:29:47.754Z,3.69
2017-01-14T09:30:48.539Z,3.83
2017-01-14T09:31:49.352Z,3.84
2017-01-14T09:32:50.158Z,3.76
2017-01-14T09:33:50.897Z,3.8
2017-01-14T09:34:51.651Z,3.8
2017-01-14T09:35:52.485Z,3.86
2017-01-14T09:36:53.276Z,3.69
2017-01-14T09:37:54.060Z,3.83
2017-01-14T09:38:54.854Z,3.76
2017-01-14T09:39:55.621Z,3.87
2017-01-14T09:40:56.388Z,3.74
2017-01-14T09:41:57.141Z,3.73
2017-01-14T09:42:57.875Z,3.76
2017-01-14T09:43:58.676Z,3.6
2017-01-14T09:44:59.503Z,3.66
2017-01-14T09:46:00.280Z,3.65
2017-01-14T09:47:01.130Z,3.7
2017-01-14T09:48:03.638Z,3.7
2017-01-14T09:49:04.933Z,3.63
2017-01-14T09:50:06.109Z,3.66
2017-01-14T09:51:06.935Z,3.63
2017-01-14T09:52:07.752Z,3.74
2017-01-14T09:53:08.533Z,3.63
2017-01-14T09:54:09.303Z,3.7
2017-01-14T09:55:10.071Z,3.74
2017-01-14T09:56:11.089Z,3.78
2017-01-14T09:57:11.736Z,3.83
2017-01-14T09:58:12.703Z,3.84
2017-01-14T09:59:13.596Z,3.92
2017-01-14T10:00:14.552Z,3.94
2017-01-14T10:01:15.412Z,3.87
2017-01-14T10:02:16.199Z,3.87
2017-01-14T10:03:16.978Z,3.88
2017-01-14T10:04:17.980Z,3.92
2017-01-14T10:05:18.746Z,3.92
2017-01-14T10:06:19.575Z,3.95
2017-01-14T10:07:20.471Z,3.88
2017-01-14T10:08:21.279Z,3.91
2017-01-14T10:09:22.018Z,3.94
2017-01-14T10:10:22.804Z,3.94
2017-01-14T10:11:23.579Z,3.91
2017-01-14T10:12:24.352Z,3.94
2017-01-14T10:13:25.266Z,3.91
2017-01-14T10:14:26.069Z,3.94
2017-01-14T10:15:26.862Z,3.94
2017-01-14T10:16:27.667Z,3.92
2017-01-14T10:17:28.429Z,3.91
2017-01-14T10:18:29.369Z,3.92
2017-01-14T10:19:29.956Z,3.95
2017-01-14T10:20:30.706Z,3.88
2017-01-14T10:21:31.488Z,3.99
2017-01-14T10:22:32.278Z,3.96
2017-01-14T10:23:33.102Z,4.04
2017-01-14T10:24:33.860Z,4.04
2017-01-14T10:25:34.771Z,4.05
2017-01-14T10:26:35.527Z,4.19
2017-01-14T10:27:36.275Z,4.19
2017-01-14T10:28:37.050Z,4.23
2017-01-14T10:29:37.808Z,4.17
2017-01-14T10:30:38.614Z,4.3
2017-01-14T10:31:39.376Z,4.19
2017-01-14T10:32:40.310Z,4.23
2017-01-14T15:44:04.145Z,2.72
2017-01-14T15:45:04.900Z,2.74
2017-01-14T15:46:05.638Z,2.67
2017-01-14T15:47:06.838Z,2.74
2017-01-14T15:48:07.583Z,2.69
2017-01-14T15:49:08.321Z,2.64
2017-01-14T15:50:09.272Z,2.67
2017-01-14T15:51:10.009Z,2.68
2017-01-14T15:52:10.767Z,2.69
2017-01-14T15:53:11.551Z,2.61
2017-01-14T15:54:12.339Z,2.68
2017-01-14T15:55:13.082Z,2.64
2017-01-14T15:56:14.019Z,2.67
2017-01-14T15:57:14.778Z,2.61
2017-01-14T15:58:15.536Z,2.62
2017-01-14T15:59:16.297Z,2.65
2017-01-14T16:00:17.075Z,2.62
2017-01-14T16:01:17.834Z,2.62
2017-01-14T16:02:18.606Z,2.61
2017-01-14T16:03:19.600Z,2.61
2017-01-14T16:04:20.348Z,2.67
2017-01-14T16:05:21.101Z,2.6
2017-01-14T16:06:21.834Z,2.54
2017-01-14T16:07:22.576Z,2.61
2017-01-14T16:08:23.340Z,2.64
2017-01-14T16:09:24.081Z,2.69
2017-01-14T16:10:24.835Z,2.62
2017-01-14T16:11:25.577Z,2.71
2017-01-14T16:12:26.508Z,2.62
2017-01-14T16:13:27.259Z,2.56
2017-01-14T16:14:28.010Z,2.62
2017-01-14T16:15:28.769Z,2.74
2017-01-14T16:16:29.527Z,2.69
2017-01-14T16:17:30.287Z,2.6
2017-01-14T16:18:31.026Z,2.69
2017-01-14T16:19:31.788Z,2.6
2017-01-14T16:20:32.534Z,2.64
2017-01-14T16:21:33.339Z,2.68
2017-01-14T16:22:34.067Z,2.72
2017-01-14T16:23:34.821Z,2.64
2017-01-14T16:24:35.570Z,2.69
2017-01-14T16:25:36.309Z,2.62
2017-01-14T16:26:37.056Z,2.65
2017-01-14T16:27:37.791Z,2.65
2017-01-14T16:28:38.531Z,2.68
2017-01-14T16:29:39.284Z,2.77
2017-01-14T16:30:40.027Z,2.67
2017-01-14T16:31:40.776Z,2.72
2017-01-14T16:32:41.544Z,2.69
2017-01-14T16:33:42.268Z,2.56
2017-01-14T16:34:43.023Z,2.74
2017-01-14T16:35:43.766Z,2.64
2017-01-14T16:36:44.528Z,2.71
2017-01-14T16:37:45.276Z,2.62
2017-01-14T16:38:46.011Z,2.65
2017-01-14T16:39:46.761Z,2.75
2017-01-14T16:40:47.530Z,2.65
2017-01-14T16:41:48.277Z,2.64
2017-01-14T16:42:49.029Z,2.64
2017-01-14T16:43:49.791Z,2.67
2017-01-14T16:44:50.547Z,2.68
2017-01-14T16:45:51.291Z,2.49
2017-01-14T16:46:52.064Z,2.46
2017-01-14T16:47:52.848Z,2.54
2017-01-14T16:48:53.593Z,2.43
2017-01-14T16:49:54.320Z,2.36
2017-01-14T16:50:55.076Z,2.42
2017-01-14T16:51:55.819Z,2.46
2017-01-14T16:52:56.570Z,2.44
2017-01-14T16:53:57.347Z,2.44
2017-01-14T16:54:58.098Z,2.57
2017-01-14T16:55:58.905Z,2.53
2017-01-14T16:56:59.682Z,2.51
2017-01-14T16:58:00.427Z,2.47
2017-01-14T16:59:01.180Z,2.56
2017-01-14T17:00:01.922Z,2.51
2017-01-14T17:01:02.689Z,2.64
2017-01-14T17:02:03.445Z,2.56
2017-01-14T17:03:04.180Z,2.64
2017-01-14T17:04:04.971Z,2.61
2017-01-14T17:05:05.705Z,2.56
2017-01-14T17:06:06.469Z,2.51
2017-01-14T17:07:07.255Z,2.56
2017-01-14T17:08:08.026Z,2.54
2017-01-14T17:09:08.808Z,2.53
2017-01-14T17:10:09.551Z,2.5
2017-01-14T17:11:10.339Z,2.46
2017-01-14T17:12:11.074Z,2.46
2017-01-14T17:13:11.829Z,2.47
2017-01-14T17:14:12.584Z,2.42
2017-01-14T17:15:13.333Z,2.46
2017-01-14T17:16:14.083Z,2.43
2017-01-14T17:17:15.328Z,2.44
2017-01-14T17:18:16.478Z,2.44
2017-01-14T17:19:17.219Z,2.51
2017-01-14T17:20:17.975Z,2.47
2017-01-14T17:21:19.062Z,2.44
2017-01-14T17:22:19.807Z,2.46
2017-01-14T17:23:20.542Z,2.38
2017-01-14T17:24:21.349Z,2.43
2017-01-14T17:25:22.120Z,2.44
2017-01-14T17:26:22.895Z,2.44
2017-01-14T17:27:23.635Z,2.53
2017-01-14T17:28:24.806Z,2.43
2017-01-14T17:29:25.595Z,2.49
2017-01-14T17:30:26.371Z,2.51
2017-01-14T17:31:27.250Z,2.51
2017-01-14T17:32:28.007Z,2.5
2017-01-14T17:33:28.942Z,2.42
2017-01-14T17:34:29.712Z,2.44
2017-01-14T17:35:30.440Z,2.44
2017-01-14T17:36:31.218Z,2.46
2017-01-14T17:37:31.996Z,2.46
2017-01-14T17:38:32.777Z,2.47
2017-01-14T17:39:33.538Z,2.44
2017-01-14T17:40:34.323Z,2.36
2017-01-14T17:41:35.074Z,2.43
2017-01-14T17:42:35.831Z,2.36
2017-01-14T17:43:36.593Z,2.44
2017-01-14T17:44:37.372Z,2.43
2017-01-14T17:45:38.124Z,2.39
2017-01-14T17:46:38.898Z,2.36
2017-01-14T17:47:39.801Z,2.36
2017-01-14T17:48:40.621Z,2.38
2017-01-14T17:49:41.451Z,2.39
2017-01-14T17:50:42.217Z,2.47
2017-01-14T17:51:43.060Z,2.47
2017-01-14T17:52:44.595Z,2.44
2017-01-14T17:53:45.569Z,2.44
2017-01-14T17:54:46.333Z,2.44
2017-01-14T17:55:47.145Z,2.39
2017-01-14T17:56:48.154Z,2.46
2017-01-14T17:57:48.983Z,2.46
2017-01-14T17:58:49.856Z,2.46
2017-01-14T17:59:50.677Z,2.38
2017-01-14T18:00:51.485Z,2.44
2017-01-14T18:01:52.403Z,2.44
2017-01-14T18:02:53.249Z,2.47
2017-01-14T18:03:54.128Z,2.5
2017-01-14T18:04:54.971Z,2.38
2017-01-14T18:05:55.801Z,2.47
2017-01-14T18:06:56.708Z,2.42
2017-01-14T18:07:57.534Z,2.43
2017-01-14T18:08:58.472Z,2.42
2017-01-14T18:09:59.433Z,2.38
2017-01-14T18:11:00.293Z,2.43
2017-01-14T18:12:01.077Z,2.42
2017-01-14T18:13:01.865Z,2.36
2017-01-14T18:14:02.857Z,2.42
2017-01-14T18:15:03.612Z,2.39
2017-01-14T18:16:04.411Z,2.39
2017-01-14T18:17:05.183Z,2.39
2017-01-14T18:18:05.986Z,2.47
2017-01-14T18:19:06.803Z,2.46
2017-01-14T18:20:07.575Z,2.42
2017-01-14T18:21:08.348Z,2.38
2017-01-14T18:22:09.129Z,2.46
2017-01-14T18:23:09.928Z,2.43
2017-01-14T18:24:10.693Z,2.36
2017-01-14T18:25:11.457Z,2.38
2017-01-14T18:26:12.231Z,2.35
2017-01-14T18:27:13.033Z,2.38
2017-01-14T18:28:13.777Z,2.33
2017-01-14T18:29:14.562Z,2.31
2017-01-14T18:30:15.294Z,2.31
2017-01-14T18:31:16.071Z,2.38
2017-01-14T18:32:16.913Z,2.26
2017-01-14T18:33:17.679Z,2.32
2017-01-14T18:34:18.461Z,2.35
2017-01-14T18:35:19.219Z,2.28
2017-01-14T18:36:19.985Z,2.35
2017-01-14T18:37:20.766Z,2.31
2017-01-14T18:38:21.528Z,2.29
2017-01-14T18:39:22.328Z,2.26
2017-01-14T18:40:23.072Z,2.26